sensor_id;sensor_type;location;lat;lon;timestamp;P1;durP1;ratioP1;P2;durP2;ratioP2
11066;SDS011;29763;50.904;5.530;2023-04-03T00:00:43;5.90;;;4.83;;
11066;SDS011;29763;50.904;5.530;2023-04-03T00:03:08;5.87;;;5.13;;
11066;SDS011;29763;50.904;5.530;2023-04-03T00:05:37;7.07;;;5.23;;
11066;SDS011;29763;50.904;5.530;2023-04-03T00:08:03;5.43;;;4.97;;
11066;SDS011;29763;50.904;5.530;2023-04-03T00:10:32;5.83;;;5.10;;
11066;SDS011;29763;50.904;5.530;2023-04-03T00:12:59;6.10;;;5.03;;
11066;SDS011;29763;50.904;5.530;2023-04-03T00:15:25;5.50;;;5.00;;
11066;SDS011;29763;50.904;5.530;2023-04-03T00:17:51;6.03;;;5.40;;
11066;SDS011;29763;50.904;5.530;2023-04-03T00:20:17;5.97;;;5.37;;
11066;SDS011;29763;50.904;5.530;2023-04-03T00:22:43;5.83;;;5.10;;
11066;SDS011;29763;50.904;5.530;2023-04-03T00:25:09;5.77;;;5.17;;
11066;SDS011;29763;50.904;5.530;2023-04-03T00:27:38;6.23;;;5.50;;
11066;SDS011;29763;50.904;5.530;2023-04-03T00:30:05;6.67;;;5.20;;
11066;SDS011;29763;50.904;5.530;2023-04-03T00:32:33;5.80;;;5.13;;
11066;SDS011;29763;50.904;5.530;2023-04-03T00:34:59;6.77;;;5.23;;
11066;SDS011;29763;50.904;5.530;2023-04-03T00:37:26;6.10;;;5.50;;
11066;SDS011;29763;50.904;5.530;2023-04-03T00:39:51;7.77;;;5.77;;
11066;SDS011;29763;50.904;5.530;2023-04-03T00:42:17;6.57;;;5.67;;
11066;SDS011;29763;50.904;5.530;2023-04-03T00:47:10;6.03;;;5.43;;
11066;SDS011;29763;50.904;5.530;2023-04-03T00:49:38;8.17;;;5.40;;
11066;SDS011;29763;50.904;5.530;2023-04-03T00:52:08;6.90;;;5.50;;
11066;SDS011;29763;50.904;5.530;2023-04-03T00:54:41;7.33;;;5.63;;
11066;SDS011;29763;50.904;5.530;2023-04-03T00:57:09;6.67;;;5.80;;
11066;SDS011;29763;50.904;5.530;2023-04-03T00:59:38;6.50;;;5.70;;
11066;SDS011;29763;50.904;5.530;2023-04-03T01:02:11;6.93;;;6.07;;
11066;SDS011;29763;50.904;5.530;2023-04-03T01:04:41;6.70;;;5.90;;
11066;SDS011;29763;50.904;5.530;2023-04-03T01:07:10;6.93;;;5.30;;
11066;SDS011;29763;50.904;5.530;2023-04-03T01:09:40;5.87;;;5.37;;
11066;SDS011;29763;50.904;5.530;2023-04-03T01:12:40;6.43;;;5.83;;
11066;SDS011;29763;50.904;5.530;2023-04-03T01:15:01;5.57;;;5.07;;
11066;SDS011;29763;50.904;5.530;2023-04-03T01:22:56;5.90;;;5.33;;
11066;SDS011;29763;50.904;5.530;2023-04-03T01:25:44;6.00;;;5.33;;
11066;SDS011;29763;50.904;5.530;2023-04-03T01:28:16;6.13;;;5.23;;
11066;SDS011;29763;50.904;5.530;2023-04-03T01:30:50;6.53;;;5.93;;
11066;SDS011;29763;50.904;5.530;2023-04-03T01:33:31;6.80;;;5.10;;
11066;SDS011;29763;50.904;5.530;2023-04-03T01:35:56;6.33;;;5.70;;
11066;SDS011;29763;50.904;5.530;2023-04-03T01:38:22;6.10;;;5.60;;
11066;SDS011;29763;50.904;5.530;2023-04-03T01:40:48;6.90;;;5.50;;
11066;SDS011;29763;50.904;5.530;2023-04-03T01:43:14;6.13;;;5.60;;
11066;SDS011;29763;50.904;5.530;2023-04-03T01:45:40;7.07;;;5.63;;
11066;SDS011;29763;50.904;5.530;2023-04-03T01:48:06;8.93;;;5.57;;
11066;SDS011;29763;50.904;5.530;2023-04-03T01:50:32;7.07;;;5.57;;
11066;SDS011;29763;50.904;5.530;2023-04-03T01:52:57;8.93;;;6.20;;
11066;SDS011;29763;50.904;5.530;2023-04-03T01:55:23;6.83;;;5.57;;
11066;SDS011;29763;50.904;5.530;2023-04-03T01:57:49;7.50;;;6.07;;
11066;SDS011;29763;50.904;5.530;2023-04-03T02:00:15;6.10;;;5.50;;
11066;SDS011;29763;50.904;5.530;2023-04-03T02:02:41;8.13;;;5.87;;
11066;SDS011;29763;50.904;5.530;2023-04-03T02:05:07;7.10;;;5.77;;
11066;SDS011;29763;50.904;5.530;2023-04-03T02:07:33;7.00;;;5.73;;
11066;SDS011;29763;50.904;5.530;2023-04-03T02:09:59;6.50;;;5.90;;
11066;SDS011;29763;50.904;5.530;2023-04-03T02:12:25;7.47;;;6.23;;
11066;SDS011;29763;50.904;5.530;2023-04-03T02:14:51;8.13;;;6.10;;
11066;SDS011;29763;50.904;5.530;2023-04-03T02:17:16;7.20;;;6.33;;
11066;SDS011;29763;50.904;5.530;2023-04-03T02:19:42;8.23;;;6.43;;
11066;SDS011;29763;50.904;5.530;2023-04-03T02:22:08;7.07;;;6.23;;
11066;SDS011;29763;50.904;5.530;2023-04-03T02:24:34;7.67;;;6.13;;
11066;SDS011;29763;50.904;5.530;2023-04-03T02:27:00;8.00;;;5.87;;
11066;SDS011;29763;50.904;5.530;2023-04-03T02:29:25;6.97;;;5.70;;
11066;SDS011;29763;50.904;5.530;2023-04-03T02:31:51;9.27;;;6.53;;
11066;SDS011;29763;50.904;5.530;2023-04-03T02:34:17;7.77;;;6.43;;
11066;SDS011;29763;50.904;5.530;2023-04-03T02:36:43;6.47;;;5.80;;
11066;SDS011;29763;50.904;5.530;2023-04-03T02:39:09;6.37;;;5.70;;
11066;SDS011;29763;50.904;5.530;2023-04-03T02:41:35;9.27;;;6.33;;
11066;SDS011;29763;50.904;5.530;2023-04-03T02:44:01;6.83;;;6.23;;
11066;SDS011;29763;50.904;5.530;2023-04-03T02:46:28;6.50;;;5.80;;
11066;SDS011;29763;50.904;5.530;2023-04-03T02:48:54;7.67;;;5.70;;
11066;SDS011;29763;50.904;5.530;2023-04-03T02:51:19;7.10;;;6.40;;
11066;SDS011;29763;50.904;5.530;2023-04-03T02:53:46;7.23;;;6.00;;
11066;SDS011;29763;50.904;5.530;2023-04-03T02:56:12;6.83;;;6.13;;
11066;SDS011;29763;50.904;5.530;2023-04-03T02:58:38;6.87;;;6.20;;
11066;SDS011;29763;50.904;5.530;2023-04-03T03:01:03;8.87;;;6.43;;
11066;SDS011;29763;50.904;5.530;2023-04-03T03:03:29;7.30;;;6.60;;
11066;SDS011;29763;50.904;5.530;2023-04-03T03:06:05;8.20;;;6.00;;
11066;SDS011;29763;50.904;5.530;2023-04-03T03:08:35;6.37;;;5.40;;
11066;SDS011;29763;50.904;5.530;2023-04-03T03:11:02;7.20;;;6.50;;
11066;SDS011;29763;50.904;5.530;2023-04-03T03:13:28;8.47;;;5.97;;
11066;SDS011;29763;50.904;5.530;2023-04-03T03:15:55;7.97;;;6.50;;
11066;SDS011;29763;50.904;5.530;2023-04-03T03:18:23;8.50;;;6.47;;
11066;SDS011;29763;50.904;5.530;2023-04-03T03:20:56;7.13;;;6.43;;
11066;SDS011;29763;50.904;5.530;2023-04-03T03:23:24;7.53;;;6.73;;
11066;SDS011;29763;50.904;5.530;2023-04-03T03:25:55;7.70;;;6.90;;
11066;SDS011;29763;50.904;5.530;2023-04-03T03:28:24;7.43;;;6.63;;
11066;SDS011;29763;50.904;5.530;2023-04-03T03:30:49;9.03;;;6.57;;
11066;SDS011;29763;50.904;5.530;2023-04-03T03:33:16;8.87;;;7.23;;
11066;SDS011;29763;50.904;5.530;2023-04-03T03:35:42;8.17;;;7.17;;
11066;SDS011;29763;50.904;5.530;2023-04-03T03:38:08;8.67;;;6.73;;
11066;SDS011;29763;50.904;5.530;2023-04-03T03:40:34;9.33;;;7.40;;
11066;SDS011;29763;50.904;5.530;2023-04-03T03:43:00;8.40;;;7.57;;
11066;SDS011;29763;50.904;5.530;2023-04-03T03:45:26;9.23;;;7.93;;
11066;SDS011;29763;50.904;5.530;2023-04-03T03:47:52;9.63;;;8.60;;
11066;SDS011;29763;50.904;5.530;2023-04-03T03:50:18;8.77;;;7.87;;
11066;SDS011;29763;50.904;5.530;2023-04-03T03:52:43;9.27;;;8.27;;
11066;SDS011;29763;50.904;5.530;2023-04-03T03:55:09;8.90;;;8.10;;
11066;SDS011;29763;50.904;5.530;2023-04-03T03:57:35;9.37;;;8.20;;
11066;SDS011;29763;50.904;5.530;2023-04-03T04:00:01;9.33;;;8.43;;
11066;SDS011;29763;50.904;5.530;2023-04-03T04:02:28;10.80;;;7.67;;
11066;SDS011;29763;50.904;5.530;2023-04-03T04:04:54;8.63;;;7.73;;
11066;SDS011;29763;50.904;5.530;2023-04-03T04:07:21;9.03;;;8.13;;
11066;SDS011;29763;50.904;5.530;2023-04-03T04:09:47;8.73;;;7.83;;
11066;SDS011;29763;50.904;5.530;2023-04-03T04:12:13;8.40;;;7.60;;
11066;SDS011;29763;50.904;5.530;2023-04-03T04:14:39;9.87;;;8.13;;
11066;SDS011;29763;50.904;5.530;2023-04-03T04:17:04;8.80;;;7.90;;
11066;SDS011;29763;50.904;5.530;2023-04-03T04:19:30;8.80;;;7.90;;
11066;SDS011;29763;50.904;5.530;2023-04-03T04:21:56;9.07;;;7.70;;
11066;SDS011;29763;50.904;5.530;2023-04-03T04:24:25;8.50;;;7.57;;
11066;SDS011;29763;50.904;5.530;2023-04-03T04:26:51;9.53;;;8.03;;
11066;SDS011;29763;50.904;5.530;2023-04-03T04:29:17;9.53;;;8.00;;
11066;SDS011;29763;50.904;5.530;2023-04-03T04:31:42;9.30;;;8.30;;
11066;SDS011;29763;50.904;5.530;2023-04-03T04:34:08;10.80;;;8.70;;
11066;SDS011;29763;50.904;5.530;2023-04-03T04:36:34;13.00;;;9.30;;
11066;SDS011;29763;50.904;5.530;2023-04-03T04:39:00;9.93;;;8.93;;
11066;SDS011;29763;50.904;5.530;2023-04-03T04:41:26;10.33;;;9.03;;
11066;SDS011;29763;50.904;5.530;2023-04-03T04:43:51;13.63;;;9.80;;
11066;SDS011;29763;50.904;5.530;2023-04-03T04:46:17;14.57;;;10.63;;
11066;SDS011;29763;50.904;5.530;2023-04-03T04:48:43;15.10;;;11.17;;
11066;SDS011;29763;50.904;5.530;2023-04-03T04:51:10;17.10;;;12.10;;
11066;SDS011;29763;50.904;5.530;2023-04-03T04:53:37;14.90;;;11.70;;
11066;SDS011;29763;50.904;5.530;2023-04-03T04:56:03;17.57;;;11.87;;
11066;SDS011;29763;50.904;5.530;2023-04-03T04:58:29;13.53;;;11.27;;
11066;SDS011;29763;50.904;5.530;2023-04-03T05:00:58;14.07;;;10.70;;
11066;SDS011;29763;50.904;5.530;2023-04-03T05:03:31;12.63;;;11.30;;
11066;SDS011;29763;50.904;5.530;2023-04-03T05:05:57;12.97;;;10.67;;
11066;SDS011;29763;50.904;5.530;2023-04-03T05:08:23;13.27;;;11.17;;
11066;SDS011;29763;50.904;5.530;2023-04-03T05:10:49;13.77;;;11.60;;
11066;SDS011;29763;50.904;5.530;2023-04-03T05:13:16;13.07;;;10.63;;
11066;SDS011;29763;50.904;5.530;2023-04-03T05:15:42;12.33;;;10.03;;
11066;SDS011;29763;50.904;5.530;2023-04-03T05:18:08;11.37;;;10.10;;
11066;SDS011;29763;50.904;5.530;2023-04-03T05:20:34;15.10;;;10.77;;
11066;SDS011;29763;50.904;5.530;2023-04-03T05:23:00;13.60;;;11.30;;
11066;SDS011;29763;50.904;5.530;2023-04-03T05:25:26;11.70;;;10.50;;
11066;SDS011;29763;50.904;5.530;2023-04-03T05:27:52;15.03;;;11.23;;
11066;SDS011;29763;50.904;5.530;2023-04-03T05:30:18;17.77;;;13.17;;
11066;SDS011;29763;50.904;5.530;2023-04-03T05:32:44;17.63;;;13.70;;
11066;SDS011;29763;50.904;5.530;2023-04-03T05:35:10;17.70;;;14.03;;
11066;SDS011;29763;50.904;5.530;2023-04-03T05:37:36;16.00;;;14.30;;
11066;SDS011;29763;50.904;5.530;2023-04-03T05:40:03;18.87;;;14.80;;
11066;SDS011;29763;50.904;5.530;2023-04-03T05:42:29;22.33;;;17.67;;
11066;SDS011;29763;50.904;5.530;2023-04-03T05:44:55;23.93;;;17.63;;
11066;SDS011;29763;50.904;5.530;2023-04-03T05:47:21;24.47;;;17.93;;
11066;SDS011;29763;50.904;5.530;2023-04-03T05:49:47;23.60;;;18.43;;
11066;SDS011;29763;50.904;5.530;2023-04-03T05:52:26;25.53;;;19.57;;
11066;SDS011;29763;50.904;5.530;2023-04-03T05:54:53;26.07;;;19.30;;
11066;SDS011;29763;50.904;5.530;2023-04-03T05:57:20;24.40;;;18.43;;
11066;SDS011;29763;50.904;5.530;2023-04-03T05:59:46;25.67;;;19.20;;
11066;SDS011;29763;50.904;5.530;2023-04-03T06:02:14;23.20;;;18.87;;
11066;SDS011;29763;50.904;5.530;2023-04-03T06:04:44;23.37;;;17.57;;
11066;SDS011;29763;50.904;5.530;2023-04-03T06:07:11;22.57;;;16.57;;
11066;SDS011;29763;50.904;5.530;2023-04-03T06:09:40;24.10;;;16.50;;
11066;SDS011;29763;50.904;5.530;2023-04-03T06:12:06;17.00;;;15.03;;
11066;SDS011;29763;50.904;5.530;2023-04-03T06:14:32;17.57;;;14.63;;
11066;SDS011;29763;50.904;5.530;2023-04-03T06:16:57;17.37;;;13.50;;
11066;SDS011;29763;50.904;5.530;2023-04-03T06:19:24;19.47;;;13.10;;
11066;SDS011;29763;50.904;5.530;2023-04-03T06:21:50;16.37;;;12.97;;
11066;SDS011;29763;50.904;5.530;2023-04-03T06:24:17;15.87;;;12.13;;
11066;SDS011;29763;50.904;5.530;2023-04-03T06:26:43;14.07;;;11.33;;
11066;SDS011;29763;50.904;5.530;2023-04-03T06:29:09;11.07;;;9.93;;
11066;SDS011;29763;50.904;5.530;2023-04-03T06:31:35;13.00;;;10.00;;
11066;SDS011;29763;50.904;5.530;2023-04-03T06:34:02;11.23;;;9.63;;
11066;SDS011;29763;50.904;5.530;2023-04-03T06:36:28;11.13;;;9.20;;
11066;SDS011;29763;50.904;5.530;2023-04-03T06:38:54;10.43;;;8.50;;
11066;SDS011;29763;50.904;5.530;2023-04-03T06:41:21;10.00;;;8.87;;
11066;SDS011;29763;50.904;5.530;2023-04-03T06:43:47;8.77;;;7.87;;
11066;SDS011;29763;50.904;5.530;2023-04-03T06:46:16;10.60;;;7.80;;
11066;SDS011;29763;50.904;5.530;2023-04-03T06:48:43;11.67;;;7.70;;
11066;SDS011;29763;50.904;5.530;2023-04-03T06:51:31;9.07;;;7.40;;
11066;SDS011;29763;50.904;5.530;2023-04-03T06:53:57;7.93;;;6.77;;
11066;SDS011;29763;50.904;5.530;2023-04-03T06:56:24;8.00;;;6.60;;
11066;SDS011;29763;50.904;5.530;2023-04-03T06:58:51;10.20;;;6.60;;
11066;SDS011;29763;50.904;5.530;2023-04-03T07:01:19;9.60;;;6.80;;
11066;SDS011;29763;50.904;5.530;2023-04-03T07:03:46;8.53;;;6.60;;
11066;SDS011;29763;50.904;5.530;2023-04-03T07:06:14;7.23;;;5.80;;
11066;SDS011;29763;50.904;5.530;2023-04-03T07:08:41;6.57;;;5.90;;
11066;SDS011;29763;50.904;5.530;2023-04-03T07:11:07;6.00;;;5.13;;
11066;SDS011;29763;50.904;5.530;2023-04-03T07:13:34;7.40;;;5.53;;
11066;SDS011;29763;50.904;5.530;2023-04-03T07:16:01;7.57;;;5.63;;
11066;SDS011;29763;50.904;5.530;2023-04-03T07:18:29;6.97;;;5.27;;
11066;SDS011;29763;50.904;5.530;2023-04-03T07:20:55;8.47;;;5.23;;
11066;SDS011;29763;50.904;5.530;2023-04-03T07:23:21;8.83;;;5.80;;
11066;SDS011;29763;50.904;5.530;2023-04-03T07:25:47;7.03;;;5.27;;
11066;SDS011;29763;50.904;5.530;2023-04-03T07:28:14;7.87;;;5.00;;
11066;SDS011;29763;50.904;5.530;2023-04-03T07:30:50;5.67;;;4.67;;
11066;SDS011;29763;50.904;5.530;2023-04-03T07:33:18;6.20;;;4.40;;
11066;SDS011;29763;50.904;5.530;2023-04-03T07:35:45;6.77;;;5.17;;
11066;SDS011;29763;50.904;5.530;2023-04-03T07:38:11;5.60;;;4.50;;
11066;SDS011;29763;50.904;5.530;2023-04-03T07:40:37;5.63;;;4.47;;
11066;SDS011;29763;50.904;5.530;2023-04-03T07:43:10;5.50;;;4.33;;
11066;SDS011;29763;50.904;5.530;2023-04-03T07:45:36;4.97;;;4.27;;
11066;SDS011;29763;50.904;5.530;2023-04-03T07:48:03;6.10;;;4.23;;
11066;SDS011;29763;50.904;5.530;2023-04-03T07:50:29;5.53;;;3.93;;
11066;SDS011;29763;50.904;5.530;2023-04-03T07:52:56;6.20;;;4.40;;
11066;SDS011;29763;50.904;5.530;2023-04-03T07:55:22;4.40;;;3.70;;
11066;SDS011;29763;50.904;5.530;2023-04-03T07:57:49;5.53;;;4.00;;
11066;SDS011;29763;50.904;5.530;2023-04-03T08:00:14;5.17;;;4.50;;
11066;SDS011;29763;50.904;5.530;2023-04-03T08:02:42;6.43;;;3.93;;
11066;SDS011;29763;50.904;5.530;2023-04-03T08:05:09;7.43;;;3.90;;
11066;SDS011;29763;50.904;5.530;2023-04-03T08:07:37;7.43;;;3.80;;
11066;SDS011;29763;50.904;5.530;2023-04-03T08:10:03;4.67;;;3.80;;
11066;SDS011;29763;50.904;5.530;2023-04-03T08:12:29;6.17;;;3.80;;
11066;SDS011;29763;50.904;5.530;2023-04-03T08:14:57;5.23;;;3.97;;
11066;SDS011;29763;50.904;5.530;2023-04-03T08:17:25;7.15;;;3.80;;
11066;SDS011;29763;50.904;5.530;2023-04-03T08:19:51;5.15;;;3.78;;
11066;SDS011;29763;50.904;5.530;2023-04-03T08:22:17;4.75;;;3.70;;
11066;SDS011;29763;50.904;5.530;2023-04-03T08:24:43;4.88;;;3.40;;
11066;SDS011;29763;50.904;5.530;2023-04-03T08:27:09;5.43;;;3.40;;
11066;SDS011;29763;50.904;5.530;2023-04-03T08:29:35;6.72;;;3.45;;
11066;SDS011;29763;50.904;5.530;2023-04-03T08:32:02;4.63;;;3.40;;
11066;SDS011;29763;50.904;5.530;2023-04-03T08:34:29;5.03;;;3.33;;
11066;SDS011;29763;50.904;5.530;2023-04-03T08:36:55;4.55;;;3.08;;
11066;SDS011;29763;50.904;5.530;2023-04-03T08:39:21;4.82;;;3.88;;
11066;SDS011;29763;50.904;5.530;2023-04-03T08:41:47;4.32;;;3.10;;
11066;SDS011;29763;50.904;5.530;2023-04-03T08:44:24;4.75;;;3.00;;
11066;SDS011;29763;50.904;5.530;2023-04-03T08:47:02;4.53;;;3.40;;
11066;SDS011;29763;50.904;5.530;2023-04-03T08:49:40;6.03;;;3.42;;
11066;SDS011;29763;50.904;5.530;2023-04-03T08:52:12;4.55;;;2.78;;
11066;SDS011;29763;50.904;5.530;2023-04-03T08:54:52;5.05;;;3.13;;
11066;SDS011;29763;50.904;5.530;2023-04-03T09:00:04;5.05;;;2.83;;
11066;SDS011;29763;50.904;5.530;2023-04-03T09:02:52;5.55;;;3.00;;
11066;SDS011;29763;50.904;5.530;2023-04-03T09:05:20;3.65;;;2.88;;
11066;SDS011;29763;50.904;5.530;2023-04-03T09:10:27;5.32;;;3.20;;
11066;SDS011;29763;50.904;5.530;2023-04-03T09:13:01;4.30;;;3.20;;
11066;SDS011;29763;50.904;5.530;2023-04-03T09:15:36;4.85;;;3.03;;
11066;SDS011;29763;50.904;5.530;2023-04-03T09:26:13;4.85;;;2.60;;
11066;SDS011;29763;50.904;5.530;2023-04-03T09:28:42;5.65;;;2.78;;
11066;SDS011;29763;50.904;5.530;2023-04-03T09:31:17;3.70;;;2.58;;
11066;SDS011;29763;50.904;5.530;2023-04-03T09:33:44;3.83;;;2.50;;
11066;SDS011;29763;50.904;5.530;2023-04-03T09:36:11;4.00;;;2.70;;
11066;SDS011;29763;50.904;5.530;2023-04-03T09:38:37;3.40;;;2.33;;
11066;SDS011;29763;50.904;5.530;2023-04-03T09:41:07;4.13;;;2.25;;
11066;SDS011;29763;50.904;5.530;2023-04-03T09:43:43;3.78;;;2.20;;
11066;SDS011;29763;50.904;5.530;2023-04-03T09:46:25;4.18;;;2.60;;
11066;SDS011;29763;50.904;5.530;2023-04-03T09:49:10;3.78;;;2.50;;
11066;SDS011;29763;50.904;5.530;2023-04-03T09:51:37;3.03;;;2.10;;
11066;SDS011;29763;50.904;5.530;2023-04-03T09:57:02;2.65;;;1.88;;
11066;SDS011;29763;50.904;5.530;2023-04-03T09:59:35;3.65;;;2.00;;
11066;SDS011;29763;50.904;5.530;2023-04-03T10:04:47;3.05;;;1.67;;
11066;SDS011;29763;50.904;5.530;2023-04-03T10:07:32;2.65;;;2.00;;
11066;SDS011;29763;50.904;5.530;2023-04-03T10:10:15;2.50;;;1.70;;
11066;SDS011;29763;50.904;5.530;2023-04-03T10:12:47;2.35;;;2.15;;
11066;SDS011;29763;50.904;5.530;2023-04-03T10:15:14;2.20;;;1.90;;
11066;SDS011;29763;50.904;5.530;2023-04-03T10:20:32;2.50;;;1.80;;
11066;SDS011;29763;50.904;5.530;2023-04-03T10:26:24;4.22;;;2.00;;
11066;SDS011;29763;50.904;5.530;2023-04-03T10:29:21;2.95;;;1.70;;
11066;SDS011;29763;50.904;5.530;2023-04-03T10:32:13;2.90;;;1.80;;
11066;SDS011;29763;50.904;5.530;2023-04-03T10:34:47;1.85;;;1.48;;
11066;SDS011;29763;50.904;5.530;2023-04-03T10:37:24;2.47;;;1.60;;
11066;SDS011;29763;50.904;5.530;2023-04-03T10:43:08;4.38;;;1.77;;
11066;SDS011;29763;50.904;5.530;2023-04-03T10:48:40;2.47;;;1.70;;
11066;SDS011;29763;50.904;5.530;2023-04-03T10:58:57;2.83;;;1.90;;
11066;SDS011;29763;50.904;5.530;2023-04-03T11:01:34;1.70;;;1.60;;
11066;SDS011;29763;50.904;5.530;2023-04-03T11:04:04;2.90;;;1.90;;
11066;SDS011;29763;50.904;5.530;2023-04-03T11:06:34;2.70;;;1.90;;
11066;SDS011;29763;50.904;5.530;2023-04-03T11:09:23;2.50;;;1.58;;
11066;SDS011;29763;50.904;5.530;2023-04-03T11:11:55;2.90;;;2.08;;
11066;SDS011;29763;50.904;5.530;2023-04-03T11:14:27;3.45;;;1.90;;
11066;SDS011;29763;50.904;5.530;2023-04-03T11:17:01;2.45;;;1.73;;
11066;SDS011;29763;50.904;5.530;2023-04-03T11:19:51;1.90;;;1.70;;
11066;SDS011;29763;50.904;5.530;2023-04-03T11:23:00;2.03;;;1.75;;
11066;SDS011;29763;50.904;5.530;2023-04-03T11:25:38;3.45;;;1.90;;
11066;SDS011;29763;50.904;5.530;2023-04-03T11:28:11;3.22;;;1.90;;
11066;SDS011;29763;50.904;5.530;2023-04-03T11:38:35;2.85;;;1.73;;
11066;SDS011;29763;50.904;5.530;2023-04-03T11:41:06;3.20;;;1.73;;
11066;SDS011;29763;50.904;5.530;2023-04-03T11:43:33;2.28;;;1.70;;
11066;SDS011;29763;50.904;5.530;2023-04-03T11:46:06;2.65;;;1.70;;
11066;SDS011;29763;50.904;5.530;2023-04-03T11:53:41;3.78;;;1.60;;
11066;SDS011;29763;50.904;5.530;2023-04-03T12:04:17;2.95;;;1.77;;
11066;SDS011;29763;50.904;5.530;2023-04-03T12:11:58;3.80;;;1.70;;
11066;SDS011;29763;50.904;5.530;2023-04-03T12:14:27;4.72;;;2.00;;
11066;SDS011;29763;50.904;5.530;2023-04-03T12:16:54;3.42;;;2.10;;
11066;SDS011;29763;50.904;5.530;2023-04-03T12:24:32;3.58;;;1.70;;
11066;SDS011;29763;50.904;5.530;2023-04-03T12:34:51;2.63;;;1.83;;
11066;SDS011;29763;50.904;5.530;2023-04-03T12:46:14;2.60;;;2.00;;
11066;SDS011;29763;50.904;5.530;2023-04-03T12:51:26;2.78;;;1.90;;
11066;SDS011;29763;50.904;5.530;2023-04-03T12:59:40;3.72;;;2.35;;
11066;SDS011;29763;50.904;5.530;2023-04-03T13:05:10;3.88;;;2.20;;
11066;SDS011;29763;50.904;5.530;2023-04-03T13:07:42;1.92;;;1.73;;
11066;SDS011;29763;50.904;5.530;2023-04-03T13:12:51;3.38;;;2.00;;
11066;SDS011;29763;50.904;5.530;2023-04-03T13:15:20;4.80;;;1.75;;
11066;SDS011;29763;50.904;5.530;2023-04-03T13:17:48;2.38;;;1.70;;
11066;SDS011;29763;50.904;5.530;2023-04-03T13:20:26;2.55;;;1.65;;
11066;SDS011;29763;50.904;5.530;2023-04-03T13:22:56;3.17;;;1.95;;
11066;SDS011;29763;50.904;5.530;2023-04-03T13:25:23;4.65;;;1.73;;
11066;SDS011;29763;50.904;5.530;2023-04-03T13:27:51;2.80;;;1.70;;
11066;SDS011;29763;50.904;5.530;2023-04-03T13:30:20;2.47;;;1.90;;
11066;SDS011;29763;50.904;5.530;2023-04-03T13:32:52;2.00;;;1.70;;
11066;SDS011;29763;50.904;5.530;2023-04-03T13:35:37;3.15;;;2.08;;
11066;SDS011;29763;50.904;5.530;2023-04-03T13:38:22;2.95;;;1.77;;
11066;SDS011;29763;50.904;5.530;2023-04-03T13:40:57;2.13;;;1.80;;
11066;SDS011;29763;50.904;5.530;2023-04-03T13:43:26;2.08;;;1.80;;
11066;SDS011;29763;50.904;5.530;2023-04-03T13:46:39;3.55;;;1.80;;
11066;SDS011;29763;50.904;5.530;2023-04-03T13:48:42;3.70;;;2.00;;
11066;SDS011;29763;50.904;5.530;2023-04-03T13:53:47;2.30;;;1.70;;
11066;SDS011;29763;50.904;5.530;2023-04-03T13:56:35;3.50;;;2.00;;
11066;SDS011;29763;50.904;5.530;2023-04-03T14:04:17;2.42;;;1.80;;
11066;SDS011;29763;50.904;5.530;2023-04-03T14:06:45;3.35;;;2.08;;
11066;SDS011;29763;50.904;5.530;2023-04-03T14:09:12;2.97;;;1.77;;
11066;SDS011;29763;50.904;5.530;2023-04-03T14:11:39;2.65;;;2.00;;
11066;SDS011;29763;50.904;5.530;2023-04-03T14:14:27;3.90;;;1.90;;
11066;SDS011;29763;50.904;5.530;2023-04-03T14:16:54;2.00;;;1.80;;
11066;SDS011;29763;50.904;5.530;2023-04-03T14:19:25;3.17;;;1.92;;
11066;SDS011;29763;50.904;5.530;2023-04-03T14:21:57;2.95;;;2.00;;
11066;SDS011;29763;50.904;5.530;2023-04-03T14:24:24;3.83;;;2.30;;
11066;SDS011;29763;50.904;5.530;2023-04-03T14:26:51;3.53;;;1.80;;
11066;SDS011;29763;50.904;5.530;2023-04-03T14:29:18;2.13;;;1.92;;
11066;SDS011;29763;50.904;5.530;2023-04-03T14:31:48;3.35;;;2.20;;
11066;SDS011;29763;50.904;5.530;2023-04-03T14:34:14;2.28;;;1.77;;
11066;SDS011;29763;50.904;5.530;2023-04-03T14:36:41;4.65;;;2.00;;
11066;SDS011;29763;50.904;5.530;2023-04-03T14:39:11;2.55;;;1.98;;
11066;SDS011;29763;50.904;5.530;2023-04-03T14:41:42;2.47;;;1.80;;
11066;SDS011;29763;50.904;5.530;2023-04-03T14:44:09;3.03;;;1.95;;
11066;SDS011;29763;50.904;5.530;2023-04-03T14:46:35;2.58;;;1.67;;
11066;SDS011;29763;50.904;5.530;2023-04-03T14:49:03;4.13;;;2.13;;
11066;SDS011;29763;50.904;5.530;2023-04-03T14:51:37;2.90;;;1.80;;
11066;SDS011;29763;50.904;5.530;2023-04-03T14:54:03;4.25;;;1.88;;
11066;SDS011;29763;50.904;5.530;2023-04-03T14:56:30;2.60;;;1.80;;
11066;SDS011;29763;50.904;5.530;2023-04-03T14:58:59;2.78;;;1.80;;
11066;SDS011;29763;50.904;5.530;2023-04-03T15:01:26;2.08;;;1.65;;
11066;SDS011;29763;50.904;5.530;2023-04-03T15:03:52;1.77;;;1.60;;
11066;SDS011;29763;50.904;5.530;2023-04-03T15:06:18;4.10;;;1.70;;
11066;SDS011;29763;50.904;5.530;2023-04-03T15:08:45;3.65;;;1.92;;
11066;SDS011;29763;50.904;5.530;2023-04-03T15:11:13;2.83;;;1.70;;
11066;SDS011;29763;50.904;5.530;2023-04-03T15:13:39;3.72;;;1.98;;
11066;SDS011;29763;50.904;5.530;2023-04-03T15:16:06;3.67;;;1.90;;
11066;SDS011;29763;50.904;5.530;2023-04-03T15:18:39;2.15;;;1.90;;
11066;SDS011;29763;50.904;5.530;2023-04-03T15:21:05;1.95;;;1.60;;
11066;SDS011;29763;50.904;5.530;2023-04-03T15:23:31;3.35;;;1.80;;
11066;SDS011;29763;50.904;5.530;2023-04-03T15:25:57;2.95;;;1.80;;
11066;SDS011;29763;50.904;5.530;2023-04-03T15:28:27;2.78;;;1.77;;
11066;SDS011;29763;50.904;5.530;2023-04-03T15:31:02;1.80;;;1.52;;
11066;SDS011;29763;50.904;5.530;2023-04-03T15:33:29;2.65;;;1.60;;
11066;SDS011;29763;50.904;5.530;2023-04-03T15:35:55;2.05;;;1.77;;
11066;SDS011;29763;50.904;5.530;2023-04-03T15:38:21;2.13;;;1.65;;
11066;SDS011;29763;50.904;5.530;2023-04-03T15:40:47;2.70;;;1.90;;
11066;SDS011;29763;50.904;5.530;2023-04-03T15:43:13;2.50;;;1.60;;
11066;SDS011;29763;50.904;5.530;2023-04-03T15:45:40;3.38;;;2.08;;
11066;SDS011;29763;50.904;5.530;2023-04-03T15:48:06;2.08;;;1.65;;
11066;SDS011;29763;50.904;5.530;2023-04-03T15:50:33;2.63;;;1.55;;
11066;SDS011;29763;50.904;5.530;2023-04-03T15:52:59;2.92;;;1.65;;
11066;SDS011;29763;50.904;5.530;2023-04-03T15:55:28;2.08;;;1.80;;
11066;SDS011;29763;50.904;5.530;2023-04-03T15:57:55;2.70;;;1.90;;
11066;SDS011;29763;50.904;5.530;2023-04-03T16:00:22;1.88;;;1.50;;
11066;SDS011;29763;50.904;5.530;2023-04-03T16:02:50;2.15;;;1.80;;
11066;SDS011;29763;50.904;5.530;2023-04-03T16:05:19;2.55;;;1.88;;
11066;SDS011;29763;50.904;5.530;2023-04-03T16:07:48;2.92;;;2.00;;
11066;SDS011;29763;50.904;5.530;2023-04-03T16:10:15;3.17;;;1.67;;
11066;SDS011;29763;50.904;5.530;2023-04-03T16:12:42;3.40;;;1.70;;
11066;SDS011;29763;50.904;5.530;2023-04-03T16:15:08;1.63;;;1.52;;
11066;SDS011;29763;50.904;5.530;2023-04-03T16:17:34;3.00;;;1.70;;
11066;SDS011;29763;50.904;5.530;2023-04-03T16:20:06;2.88;;;1.70;;
11066;SDS011;29763;50.904;5.530;2023-04-03T16:22:34;2.70;;;1.83;;
11066;SDS011;29763;50.904;5.530;2023-04-03T16:25:00;2.58;;;1.70;;
11066;SDS011;29763;50.904;5.530;2023-04-03T16:27:26;2.78;;;1.55;;
11066;SDS011;29763;50.904;5.530;2023-04-03T16:29:54;2.90;;;1.58;;
11066;SDS011;29763;50.904;5.530;2023-04-03T16:32:20;2.35;;;1.63;;
11066;SDS011;29763;50.904;5.530;2023-04-03T16:34:48;2.45;;;1.83;;
11066;SDS011;29763;50.904;5.530;2023-04-03T16:37:14;3.35;;;1.80;;
11066;SDS011;29763;50.904;5.530;2023-04-03T16:39:41;3.60;;;1.83;;
11066;SDS011;29763;50.904;5.530;2023-04-03T16:42:07;2.42;;;1.70;;
11066;SDS011;29763;50.904;5.530;2023-04-03T16:44:34;2.15;;;1.75;;
11066;SDS011;29763;50.904;5.530;2023-04-03T16:47:02;2.17;;;1.60;;
11066;SDS011;29763;50.904;5.530;2023-04-03T16:49:28;2.67;;;1.90;;